Pierre Regional Airport Pierre US
ICAO: KPIR
IATA: PIR
Category: Medium
Scheduled Services: Yes

Elevation: 1744 ft
TransAlt. 18000 ft.

Airport Communications:
ASOS:119.025
MINNEAPOLIS CNTR:125.1
CTAF:122.7
HURON RDO:122.2
UNICOM:122.95

KPIR Zoom In..

If you have problems with the map follow the link
https://www.worldairports.se/pages/airport.php?
ICAO=KPIR

Runways:

(A) RW 07 length 6881 ft width 150 ft
---- / hdg 69

(B) RW 13 length 6900 ft width 100 ft
---- / hdg 133

(C) RW 25 length 6881 ft width 150 ft
---- / hdg 249

(D) RW 31 length 6900 ft width 100 ft
ILS 111.90 / hdg 313

Location; KPIR
Day. 18 / Time. 10.53 Zulu
* Altimeter: 30.16
* Temperature: -15° c. -5°f.
* Wind from: 310° Speed 27 kn with Gusts up to 40 kn.
Dewpoint: -20° c.
Visibility: 10 Statute Miles.
Clouds: Scattered 2200 ft.

KPIR 181053Z AUTO 31027G40KT 10SM SCT022 M15/M20 A3016 RMK AO2 PK WND 31040/1045 SLP245 T11501200


Wind From 310°
Speed 27 kn.

 
 
jpsmedia worldairports.se 2020   terms of use